createdAt,value
2017-12-01T00:01:52.904Z,77.56
2017-12-01T00:04:20.564Z,77.70
2017-12-01T00:06:48.143Z,77.82
2017-12-01T00:09:15.721Z,77.62
2017-12-01T00:11:43.660Z,77.68
2017-12-01T00:14:11.529Z,77.75
2017-12-01T00:16:39.184Z,77.82
2017-12-01T00:19:06.760Z,77.81
2017-12-01T00:21:34.347Z,77.70
2017-12-01T00:24:01.962Z,77.62
2017-12-01T00:26:29.540Z,77.25
2017-12-01T00:28:57.504Z,77.52
2017-12-01T00:31:25.089Z,77.66
2017-12-01T00:33:52.692Z,77.50
2017-12-01T00:36:20.287Z,77.80
2017-12-01T00:38:47.867Z,77.69
2017-12-01T00:41:15.520Z,77.62
2017-12-01T00:43:43.100Z,77.35
2017-12-01T00:46:10.682Z,77.23
2017-12-01T00:48:38.292Z,77.35
2017-12-01T00:51:06.172Z,77.31
2017-12-01T00:53:34.038Z,77.40
2017-12-01T00:56:01.620Z,77.34
2017-12-01T00:58:29.465Z,77.46
2017-12-01T01:00:57.084Z,77.44
2017-12-01T01:03:25.156Z,77.51
2017-12-01T01:05:53.075Z,77.53
2017-12-01T01:08:20.665Z,77.61
2017-12-01T01:10:49.807Z,77.70
2017-12-01T01:13:17.695Z,77.69
2017-12-01T01:15:45.285Z,77.85
2017-12-01T01:18:12.900Z,77.94
2017-12-01T01:20:40.792Z,77.75
2017-12-01T01:23:08.419Z,77.91
2017-12-01T01:25:36.048Z,77.87
2017-12-01T01:28:03.999Z,78.09
2017-12-01T01:30:31.620Z,78.26
2017-12-01T01:32:59.221Z,78.57
2017-12-01T01:35:26.805Z,78.55
2017-12-01T01:37:54.424Z,78.71
2017-12-01T01:40:22.019Z,78.77
2017-12-01T01:42:49.668Z,78.95
2017-12-01T01:45:17.274Z,78.98
2017-12-01T01:47:44.869Z,78.87
2017-12-01T01:50:12.496Z,78.86
2017-12-01T01:52:40.423Z,78.92
2017-12-01T01:55:08.056Z,79.04
2017-12-01T01:57:35.643Z,79.24
2017-12-01T02:00:03.304Z,78.94
2017-12-01T02:02:30.919Z,79.06
2017-12-01T02:04:58.575Z,78.97
2017-12-01T02:07:26.209Z,79.06
2017-12-01T02:09:54.053Z,79.14
2017-12-01T02:12:21.624Z,79.12
2017-12-01T02:14:49.241Z,79.32
2017-12-01T02:17:17.144Z,79.19
2017-12-01T02:19:44.800Z,79.23
2017-12-01T02:22:12.382Z,79.13
2017-12-01T02:24:39.968Z,79.14
2017-12-01T02:27:07.898Z,79.26
2017-12-01T02:29:35.504Z,79.41
2017-12-01T02:32:03.125Z,79.31
2017-12-01T02:34:30.724Z,79.20
2017-12-01T02:36:58.311Z,79.40
2017-12-01T02:39:25.937Z,79.38
2017-12-01T02:41:53.772Z,79.33
2017-12-01T02:44:21.641Z,79.23
2017-12-01T02:46:49.234Z,79.65
2017-12-01T02:49:17.172Z,79.38
2017-12-01T02:51:44.792Z,79.36
2017-12-01T02:54:12.388Z,79.39
2017-12-01T02:56:40.064Z,79.38
2017-12-01T02:59:07.648Z,79.55
2017-12-01T03:01:35.256Z,79.68
2017-12-01T03:04:02.951Z,79.76
2017-12-01T03:06:30.555Z,79.81
2017-12-01T03:08:58.448Z,79.93
2017-12-01T03:11:26.344Z,80.10
2017-12-01T03:13:54.176Z,80.25
2017-12-01T03:16:22.080Z,80.21
2017-12-01T03:18:49.662Z,80.23
2017-12-01T03:21:17.286Z,80.25
2017-12-01T03:23:44.894Z,80.22
2017-12-01T03:26:12.613Z,80.09
2017-12-01T03:28:40.232Z,80.12
2017-12-01T03:31:07.826Z,80.18
2017-12-01T03:33:35.444Z,80.25
2017-12-01T03:36:03.032Z,80.48
2017-12-01T03:38:30.652Z,80.55
2017-12-01T03:40:58.319Z,80.55
2017-12-01T03:43:25.909Z,80.36
2017-12-01T03:45:53.540Z,80.47
2017-12-01T03:48:21.128Z,80.63
2017-12-01T03:50:48.720Z,80.78
2017-12-01T03:53:16.364Z,80.74
2017-12-01T03:55:43.982Z,80.67
2017-12-01T03:58:11.557Z,80.70
2017-12-01T04:00:39.169Z,80.75
2017-12-01T04:03:06.765Z,80.64
2017-12-01T04:05:34.359Z,80.49
2017-12-01T04:08:01.991Z,80.43
2017-12-01T04:10:29.577Z,80.34
2017-12-01T04:12:57.173Z,80.47
2017-12-01T04:15:24.784Z,80.43
2017-12-01T04:17:52.369Z,80.60
2017-12-01T04:20:19.986Z,80.64
2017-12-01T04:22:47.566Z,80.68
2017-12-01T04:25:15.142Z,80.79
2017-12-01T04:27:42.790Z,80.87
2017-12-01T04:30:10.380Z,81.12
2017-12-01T04:32:38.026Z,81.37
2017-12-01T04:35:05.969Z,81.36
2017-12-01T04:37:33.548Z,81.55
2017-12-01T04:40:01.165Z,81.59
2017-12-01T04:42:28.750Z,81.38
2017-12-01T04:44:56.380Z,81.48
2017-12-01T04:47:24.008Z,81.56
2017-12-01T04:49:51.599Z,81.73
2017-12-01T04:52:19.212Z,81.77
2017-12-01T04:54:46.824Z,81.83
2017-12-01T04:57:14.740Z,81.93
2017-12-01T04:59:42.360Z,81.71
2017-12-01T05:02:10.808Z,81.86
2017-12-01T05:04:38.421Z,81.95
2017-12-01T05:07:06.079Z,81.90
2017-12-01T05:09:33.765Z,82.05
2017-12-01T05:12:01.372Z,81.90
2017-12-01T05:14:28.968Z,81.77
2017-12-01T05:16:56.868Z,81.80
2017-12-01T05:19:24.475Z,81.74
2017-12-01T05:21:52.109Z,81.87
2017-12-01T05:24:19.695Z,81.79
2017-12-01T05:26:47.616Z,81.94
2017-12-01T05:29:15.244Z,81.88
2017-12-01T05:31:42.839Z,81.86
2017-12-01T05:34:10.747Z,81.76
2017-12-01T05:36:38.334Z,81.80
2017-12-01T05:39:05.973Z,81.85
2017-12-01T05:41:33.591Z,81.79
2017-12-01T05:44:01.192Z,81.93
2017-12-01T05:46:28.860Z,81.83
2017-12-01T05:48:56.443Z,81.87
2017-12-01T05:51:24.344Z,82.10
2017-12-01T05:53:52.421Z,82.29
2017-12-01T05:56:19.999Z,82.24
2017-12-01T05:58:47.620Z,82.31
2017-12-01T06:01:15.192Z,82.63
2017-12-01T06:03:43.068Z,82.77
2017-12-01T06:06:10.687Z,82.85
2017-12-01T06:08:38.286Z,82.90
2017-12-01T06:11:06.183Z,82.73
2017-12-01T06:13:34.004Z,82.47
2017-12-01T06:16:01.774Z,82.67
2017-12-01T06:18:30.126Z,82.77
2017-12-01T06:20:57.737Z,82.70
2017-12-01T06:23:25.409Z,82.99
2017-12-01T06:25:52.988Z,83.07
2017-12-01T06:28:20.580Z,83.11
2017-12-01T06:30:48.236Z,83.16
2017-12-01T06:33:15.828Z,82.66
2017-12-01T06:35:43.468Z,82.71
2017-12-01T06:38:11.380Z,83.10
2017-12-01T06:40:38.968Z,83.37
2017-12-01T06:43:06.918Z,84.33
2017-12-01T06:45:34.543Z,84.42
2017-12-01T06:48:02.177Z,84.54
2017-12-01T06:50:29.767Z,84.50
2017-12-01T06:52:57.362Z,84.54
2017-12-01T06:55:25.332Z,84.48
2017-12-01T06:57:52.926Z,84.31
2017-12-01T07:00:20.866Z,84.87
2017-12-01T07:02:48.458Z,85.06
2017-12-01T07:05:16.122Z,85.16
2017-12-01T07:07:44.070Z,85.19
2017-12-01T07:10:11.956Z,85.45
2017-12-01T07:12:39.617Z,85.34
2017-12-01T07:15:08.550Z,85.17
2017-12-01T07:17:36.192Z,85.10
2017-12-01T07:20:03.832Z,85.14
2017-12-01T07:22:31.703Z,85.24
2017-12-01T07:24:59.341Z,85.16
2017-12-01T07:27:26.942Z,84.96
2017-12-01T07:29:54.531Z,84.83
2017-12-01T07:32:22.144Z,84.81
2017-12-01T07:34:50.003Z,84.71
2017-12-01T07:37:17.637Z,84.72
2017-12-01T07:39:45.229Z,84.69
2017-12-01T07:42:13.093Z,84.54
2017-12-01T07:44:46.296Z,84.33
2017-12-01T07:47:13.880Z,84.03
2017-12-01T07:49:41.547Z,83.86
2017-12-01T07:52:09.171Z,83.92
2017-12-01T07:54:36.749Z,83.55
2017-12-01T07:57:04.509Z,83.38
2017-12-01T07:59:32.364Z,83.24
2017-12-01T08:02:00.000Z,83.21
2017-12-01T08:04:27.617Z,82.89
2017-12-01T08:06:55.229Z,82.44
2017-12-01T08:09:22.913Z,82.31
2017-12-01T08:11:50.776Z,82.06
2017-12-01T08:14:18.419Z,81.39
2017-12-01T08:19:50.936Z,80.80
2017-12-01T08:25:29.813Z,80.72
2017-12-01T08:27:57.417Z,80.08
2017-12-01T08:30:25.024Z,80.51
2017-12-01T08:32:52.635Z,80.53
2017-12-01T08:35:20.237Z,80.84
2017-12-01T08:37:47.893Z,80.87
2017-12-01T08:40:15.758Z,80.83
2017-12-01T08:42:43.343Z,80.51
2017-12-01T08:45:11.602Z,80.45
2017-12-01T08:47:39.233Z,80.70
2017-12-01T08:50:06.862Z,80.54
2017-12-01T08:52:34.789Z,79.83
2017-12-01T08:55:02.368Z,79.57
2017-12-01T08:57:29.986Z,79.75
2017-12-01T08:59:57.892Z,79.90
2017-12-01T09:02:25.800Z,79.84
2017-12-01T09:04:53.419Z,79.74
2017-12-01T09:07:21.020Z,78.94
2017-12-01T09:09:48.949Z,78.51
2017-12-01T09:12:16.547Z,78.38
2017-12-01T09:14:44.159Z,78.32
2017-12-01T09:17:11.729Z,78.54
2017-12-01T09:19:39.482Z,78.59
2017-12-01T09:22:07.362Z,78.39
2017-12-01T09:24:34.984Z,78.63
2017-12-01T09:27:02.619Z,78.15
2017-12-01T09:29:30.205Z,78.07
2017-12-01T09:31:58.124Z,78.14
2017-12-01T09:34:25.758Z,77.89
2017-12-01T09:36:53.373Z,78.04
2017-12-01T09:39:21.009Z,77.92
2017-12-01T09:41:48.615Z,77.80
2017-12-01T09:44:16.532Z,77.74
2017-12-01T09:46:44.144Z,78.17
2017-12-01T09:49:12.065Z,77.91
2017-12-01T09:51:40.038Z,78.00
2017-12-01T09:54:07.901Z,77.67
2017-12-01T09:56:35.768Z,77.97
2017-12-01T09:59:03.406Z,77.79
2017-12-01T10:01:31.023Z,77.63
2017-12-01T10:03:58.660Z,77.87
2017-12-01T10:06:26.266Z,77.72
2017-12-01T10:08:53.842Z,77.93
2017-12-01T10:11:21.461Z,77.86
2017-12-01T10:13:49.044Z,77.44
2017-12-01T10:16:16.724Z,76.79
2017-12-01T10:18:44.368Z,77.31
2017-12-01T10:21:11.951Z,77.57
2017-12-01T10:23:39.612Z,77.56
2017-12-01T10:26:07.214Z,77.28
2017-12-01T10:28:35.191Z,77.43
2017-12-01T10:31:02.777Z,77.08
2017-12-01T10:33:30.372Z,76.69
2017-12-01T10:35:58.028Z,76.42
2017-12-01T10:38:25.636Z,76.61
2017-12-01T10:40:53.261Z,76.34
2017-12-01T10:43:20.853Z,76.43
2017-12-01T10:45:48.466Z,76.81
2017-12-01T10:48:16.097Z,77.08
2017-12-01T10:50:43.692Z,76.56
2017-12-01T10:53:11.319Z,75.79
2017-12-01T10:55:38.909Z,75.32
2017-12-01T10:58:06.493Z,75.04
2017-12-01T11:00:34.100Z,74.96
2017-12-01T11:03:01.722Z,74.19
2017-12-01T11:05:29.527Z,74.18
2017-12-01T11:07:57.100Z,73.78
2017-12-01T11:10:24.731Z,73.17
2017-12-01T11:12:53.339Z,72.73
2017-12-01T11:15:20.976Z,72.76
2017-12-01T11:17:48.604Z,72.82
2017-12-01T11:20:16.217Z,73.33
2017-12-01T11:22:43.820Z,73.88
2017-12-01T11:25:11.433Z,74.12
2017-12-01T11:27:39.034Z,74.68
2017-12-01T11:30:06.657Z,75.11
2017-12-01T11:32:34.544Z,74.82
2017-12-01T11:35:02.120Z,75.36
2017-12-01T11:37:31.341Z,75.09
2017-12-01T11:39:59.188Z,75.48
2017-12-01T11:42:26.824Z,75.66
2017-12-01T11:44:54.694Z,75.93
2017-12-01T11:47:22.270Z,76.18
2017-12-01T11:49:50.219Z,76.47
2017-12-01T11:52:17.832Z,76.76
2017-12-01T11:54:45.461Z,77.05
2017-12-01T11:57:13.084Z,77.36
2017-12-01T11:59:40.676Z,77.22
2017-12-01T12:02:08.636Z,77.37
2017-12-01T12:04:36.311Z,77.04
2017-12-01T12:07:03.941Z,77.33
2017-12-01T12:09:31.515Z,77.55
2017-12-01T12:11:59.105Z,77.77
2017-12-01T12:14:26.720Z,77.37
2017-12-01T12:16:54.303Z,77.04
2017-12-01T12:19:21.929Z,77.55
2017-12-01T12:21:49.524Z,77.26
2017-12-01T12:24:17.124Z,77.59
2017-12-01T12:26:44.744Z,77.62
2017-12-01T12:29:12.630Z,77.94
2017-12-01T12:31:40.317Z,77.97
2017-12-01T12:34:07.909Z,78.12
2017-12-01T12:36:35.516Z,77.99
2017-12-01T12:39:03.211Z,78.14
2017-12-01T12:41:30.817Z,78.35
2017-12-01T12:43:58.476Z,78.40
2017-12-01T12:46:26.083Z,78.16
2017-12-01T12:48:53.679Z,78.38
2017-12-01T12:51:21.304Z,78.09
2017-12-01T12:53:48.909Z,78.40
2017-12-01T12:56:16.618Z,78.41
2017-12-01T12:58:44.184Z,78.25
2017-12-01T13:01:11.781Z,77.92
2017-12-01T13:03:39.712Z,77.82
2017-12-01T13:06:07.620Z,78.11
2017-12-01T13:08:35.240Z,78.33
2017-12-01T13:11:02.832Z,78.24
2017-12-01T13:13:30.487Z,78.28
2017-12-01T13:15:58.077Z,78.19
2017-12-01T13:18:25.667Z,78.22
2017-12-01T13:20:53.296Z,78.18
2017-12-01T13:23:20.893Z,77.66
2017-12-01T13:25:48.786Z,77.84
2017-12-01T13:28:16.444Z,77.92
2017-12-01T13:30:44.075Z,78.22
2017-12-01T13:33:11.796Z,78.29
2017-12-01T13:35:39.411Z,77.83
2017-12-01T13:38:07.300Z,77.39
2017-12-01T13:40:35.167Z,77.21
2017-12-01T13:43:02.829Z,77.22
2017-12-01T13:45:30.445Z,77.44
2017-12-01T13:47:58.124Z,77.38
2017-12-01T13:50:25.745Z,77.40
2017-12-01T13:52:53.449Z,77.90
2017-12-01T13:55:21.077Z,78.08
2017-12-01T13:57:48.897Z,78.23
2017-12-01T14:00:16.824Z,78.24
2017-12-01T14:02:44.456Z,78.20
2017-12-01T14:05:12.053Z,77.95
2017-12-01T14:07:39.740Z,78.14
2017-12-01T14:10:07.653Z,78.21
2017-12-01T14:12:35.284Z,77.60
2017-12-01T14:15:04.092Z,76.83
2017-12-01T14:17:31.675Z,77.30
2017-12-01T14:19:59.274Z,77.36
2017-12-01T14:22:26.891Z,77.59
2017-12-01T14:24:54.492Z,77.69
2017-12-01T14:27:22.107Z,77.94
2017-12-01T14:29:50.224Z,77.99
2017-12-01T14:32:17.865Z,78.35
2017-12-01T14:34:45.500Z,78.26
2017-12-01T14:37:13.111Z,78.40
2017-12-01T14:39:40.820Z,78.61
2017-12-01T14:42:08.433Z,78.47
2017-12-01T14:44:36.035Z,78.47
2017-12-01T14:47:03.676Z,78.47
2017-12-01T14:49:31.282Z,78.74
2017-12-01T14:51:58.922Z,78.88
2017-12-01T14:54:27.259Z,79.01
2017-12-01T14:56:54.876Z,79.35
2017-12-01T14:59:22.499Z,79.64
2017-12-01T15:01:50.100Z,79.68
2017-12-01T15:04:18.062Z,78.89
2017-12-01T15:06:45.676Z,79.51
2017-12-01T15:09:13.252Z,79.79
2017-12-01T15:11:40.864Z,79.85
2017-12-01T15:14:08.502Z,79.63
2017-12-01T15:16:36.159Z,80.05
2017-12-01T15:19:04.036Z,80.18
2017-12-01T15:21:31.972Z,80.23
2017-12-01T15:23:59.612Z,80.28
2017-12-01T15:26:27.240Z,80.35
2017-12-01T15:28:54.875Z,80.43
2017-12-01T15:31:22.479Z,80.07
2017-12-01T15:33:50.075Z,80.08
2017-12-01T15:36:17.728Z,80.50
2017-12-01T15:38:45.317Z,80.64
2017-12-01T15:41:13.212Z,80.91
2017-12-01T15:43:41.076Z,80.88
2017-12-01T15:46:08.680Z,81.06
2017-12-01T15:48:36.353Z,81.29
2017-12-01T15:51:04.273Z,81.26
2017-12-01T15:53:31.902Z,81.64
2017-12-01T15:55:59.513Z,81.64
2017-12-01T15:58:27.476Z,81.71
2017-12-01T16:00:55.104Z,81.86
2017-12-01T16:03:22.698Z,82.05
2017-12-01T16:05:50.319Z,82.20
2017-12-01T16:08:18.240Z,82.16
2017-12-01T16:10:45.903Z,82.21
2017-12-01T16:13:13.517Z,82.14
2017-12-01T16:15:41.460Z,82.28
2017-12-01T16:18:09.512Z,82.29
2017-12-01T16:20:37.129Z,82.35
2017-12-01T16:23:04.733Z,82.06
2017-12-01T16:25:33.565Z,82.62
2017-12-01T16:28:01.232Z,82.68
2017-12-01T16:30:28.870Z,82.81
2017-12-01T16:33:00.284Z,82.83
2017-12-01T16:35:24.168Z,82.78
2017-12-01T16:37:51.841Z,83.02
2017-12-01T16:40:19.444Z,82.82
2017-12-01T16:42:49.511Z,82.44
2017-12-01T16:45:17.481Z,82.40
2017-12-01T16:47:45.350Z,82.36
2017-12-01T16:50:13.031Z,82.61
2017-12-01T16:52:40.874Z,82.70
2017-12-01T16:55:08.542Z,82.74
2017-12-01T16:57:36.133Z,82.79
2017-12-01T17:00:03.814Z,82.85
2017-12-01T17:02:31.541Z,82.63
2017-12-01T17:04:59.495Z,82.72
2017-12-01T17:07:27.113Z,82.89
2017-12-01T17:09:54.709Z,82.94
2017-12-01T17:12:22.383Z,82.32
2017-12-01T17:14:50.009Z,82.45
2017-12-01T17:17:17.909Z,83.00
2017-12-01T17:19:45.549Z,83.27
2017-12-01T17:22:13.134Z,83.35
2017-12-01T17:24:41.002Z,83.55
2017-12-01T17:27:08.636Z,83.68
2017-12-01T17:29:36.215Z,83.67
2017-12-01T17:32:03.842Z,83.58
2017-12-01T17:34:31.440Z,83.60
2017-12-01T17:36:59.051Z,83.83
2017-12-01T17:39:26.699Z,83.62
2017-12-01T17:41:54.339Z,83.79
2017-12-01T17:44:21.925Z,84.24
2017-12-01T17:46:49.556Z,83.40
2017-12-01T17:49:17.144Z,83.90
2017-12-01T17:51:44.987Z,84.07
2017-12-01T17:54:12.631Z,84.12
2017-12-01T17:56:40.261Z,84.43
2017-12-01T17:59:07.877Z,84.59
2017-12-01T18:01:35.579Z,84.36
2017-12-01T18:04:03.281Z,84.37
2017-12-01T18:06:30.942Z,84.37
2017-12-01T18:08:58.779Z,84.36
2017-12-01T18:11:26.378Z,84.41
2017-12-01T18:13:53.987Z,84.54
2017-12-01T18:16:21.601Z,84.60
2017-12-01T18:18:49.265Z,84.94
2017-12-01T18:21:16.862Z,84.91
2017-12-01T18:23:44.707Z,84.93
2017-12-01T18:26:12.389Z,84.94
2017-12-01T18:28:40.032Z,84.90
2017-12-01T18:31:07.678Z,85.01
2017-12-01T18:33:35.449Z,85.40
2017-12-01T18:36:03.340Z,85.24
2017-12-01T18:38:30.977Z,85.32
2017-12-01T18:40:58.564Z,85.48
2017-12-01T18:43:26.249Z,85.30
2017-12-01T18:45:53.888Z,85.01
2017-12-01T18:48:21.517Z,85.07
2017-12-01T18:50:49.124Z,84.87
2017-12-01T18:53:16.973Z,84.85
2017-12-01T18:55:44.616Z,85.26
2017-12-01T18:58:12.197Z,84.81
2017-12-01T19:00:39.822Z,85.14
2017-12-01T19:03:07.464Z,85.48
2017-12-01T19:05:35.060Z,85.23
2017-12-01T19:08:03.610Z,85.28
2017-12-01T19:10:31.229Z,85.53
2017-12-01T19:12:59.102Z,85.59
2017-12-01T19:15:26.964Z,85.33
2017-12-01T19:17:54.833Z,85.49
2017-12-01T19:20:22.806Z,85.60
2017-12-01T19:22:50.395Z,85.50
2017-12-01T19:25:17.993Z,85.42
2017-12-01T19:27:45.896Z,85.48
2017-12-01T19:30:13.510Z,85.58
2017-12-01T19:32:41.131Z,85.54
2017-12-01T19:35:08.782Z,85.63
2017-12-01T19:37:36.479Z,85.83
2017-12-01T19:40:04.418Z,86.04
2017-12-01T19:42:32.007Z,86.22
2017-12-01T19:44:59.992Z,86.49
2017-12-01T19:47:27.568Z,86.66
2017-12-01T19:49:55.175Z,86.64
2017-12-01T19:52:22.792Z,86.36
2017-12-01T19:54:50.434Z,86.27
2017-12-01T19:57:18.072Z,86.36
2017-12-01T19:59:45.700Z,86.31
2017-12-01T20:02:13.321Z,86.34
2017-12-01T20:04:40.941Z,86.21
2017-12-01T20:07:08.612Z,86.26
2017-12-01T20:09:36.251Z,86.18
2017-12-01T20:12:03.944Z,86.43
2017-12-01T20:14:31.539Z,86.26
2017-12-01T20:16:59.477Z,86.09
2017-12-01T20:19:27.342Z,85.81
2017-12-01T20:21:54.980Z,86.14
2017-12-01T20:24:22.593Z,86.24
2017-12-01T20:26:50.185Z,86.31
2017-12-01T20:29:17.808Z,86.04
2017-12-01T20:31:45.648Z,86.19
2017-12-01T20:34:13.286Z,86.20
2017-12-01T20:36:40.897Z,86.17
2017-12-01T20:39:08.504Z,86.27
2017-12-01T20:41:36.163Z,86.30
2017-12-01T20:44:03.820Z,86.22
2017-12-01T20:46:31.455Z,86.24
2017-12-01T20:48:59.409Z,86.50
2017-12-01T20:51:27.089Z,86.39
2017-12-01T20:53:54.744Z,86.28
2017-12-01T20:56:22.445Z,86.35
2017-12-01T20:58:50.091Z,86.33
2017-12-01T21:01:17.732Z,86.39
2017-12-01T21:03:45.382Z,86.84
2017-12-01T21:06:13.020Z,87.24
2017-12-01T21:08:40.825Z,87.34
2017-12-01T21:11:08.684Z,87.23
2017-12-01T21:13:36.549Z,87.32
2017-12-01T21:16:04.124Z,87.11
2017-12-01T21:18:31.761Z,87.28
2017-12-01T21:20:59.337Z,86.86
2017-12-01T21:23:26.987Z,87.11
2017-12-01T21:25:54.853Z,87.50
2017-12-01T21:28:22.437Z,87.58
2017-12-01T21:30:50.059Z,87.74
2017-12-01T21:33:17.639Z,87.82
2017-12-01T21:35:45.264Z,87.60
2017-12-01T21:38:16.342Z,87.45
2017-12-01T21:40:44.208Z,87.41
2017-12-01T21:43:12.208Z,87.24
2017-12-01T21:45:39.819Z,87.31
2017-12-01T21:48:07.440Z,87.26
2017-12-01T21:50:35.042Z,87.36
2017-12-01T21:53:02.631Z,87.47
2017-12-01T21:55:30.262Z,87.31
2017-12-01T21:57:57.841Z,86.93
2017-12-01T22:00:25.455Z,87.10
2017-12-01T22:02:53.043Z,87.10
2017-12-01T22:05:20.621Z,87.03
2017-12-01T22:07:48.247Z,87.10
2017-12-01T22:10:15.873Z,86.99
2017-12-01T22:12:43.528Z,86.93
2017-12-01T22:15:11.191Z,86.76
2017-12-01T22:17:38.792Z,86.36
2017-12-01T22:20:06.410Z,86.39
2017-12-01T22:22:34.025Z,86.56
2017-12-01T22:25:01.687Z,86.22
2017-12-01T22:27:29.273Z,86.25
2017-12-01T22:29:57.164Z,86.38
2017-12-01T22:32:24.861Z,86.59
2017-12-01T22:34:52.471Z,86.48
2017-12-01T22:37:20.105Z,86.32
2017-12-01T22:39:47.687Z,86.40
2017-12-01T22:42:15.277Z,86.40
2017-12-01T22:44:42.889Z,86.67
2017-12-01T22:47:10.466Z,86.66
2017-12-01T22:49:38.092Z,86.08
2017-12-01T22:52:05.685Z,86.35
2017-12-01T22:54:33.593Z,86.46
2017-12-01T22:57:03.040Z,86.60
2017-12-01T22:59:30.660Z,86.45
2017-12-01T23:01:58.285Z,86.28
2017-12-01T23:04:25.888Z,86.44
2017-12-01T23:06:53.483Z,86.45
2017-12-01T23:09:21.104Z,86.34
2017-12-01T23:11:48.700Z,86.35
2017-12-01T23:14:16.341Z,86.33
2017-12-01T23:16:43.975Z,86.06
2017-12-01T23:19:11.596Z,86.12
2017-12-01T23:21:39.535Z,86.23
2017-12-01T23:24:07.191Z,86.41
2017-12-01T23:26:34.812Z,86.36
2017-12-01T23:29:02.395Z,86.42
2017-12-01T23:31:29.992Z,86.39
2017-12-01T23:33:57.603Z,86.23
2017-12-01T23:36:25.196Z,86.28
2017-12-01T23:38:52.819Z,86.45
2017-12-01T23:41:20.412Z,86.48
2017-12-01T23:43:47.995Z,86.38
2017-12-01T23:46:15.603Z,86.25
2017-12-01T23:48:43.216Z,86.43
2017-12-01T23:51:10.852Z,86.55
2017-12-01T23:53:38.484Z,86.29
2017-12-01T23:56:06.053Z,86.26
2017-12-01T23:58:33.680Z,86.45
